sensor_id;sensor_type;location;lat;lon;timestamp;P1;durP1;ratioP1;P2;durP2;ratioP2
562;SDS011;266;49.514;8.294;2023-05-24T00:01:38;4.90;;;4.10;;
562;SDS011;266;49.514;8.294;2023-05-24T00:04:07;5.07;;;3.70;;
562;SDS011;266;49.514;8.294;2023-05-24T00:06:37;4.50;;;3.80;;
562;SDS011;266;49.514;8.294;2023-05-24T00:09:05;7.53;;;3.70;;
562;SDS011;266;49.514;8.294;2023-05-24T00:11:35;5.10;;;4.23;;
562;SDS011;266;49.514;8.294;2023-05-24T00:14:03;5.10;;;3.70;;
562;SDS011;266;49.514;8.294;2023-05-24T00:16:31;3.60;;;3.30;;
562;SDS011;266;49.514;8.294;2023-05-24T00:19:02;6.90;;;4.17;;
562;SDS011;266;49.514;8.294;2023-05-24T00:21:30;6.10;;;4.10;;
562;SDS011;266;49.514;8.294;2023-05-24T00:24:00;7.10;;;3.57;;
562;SDS011;266;49.514;8.294;2023-05-24T00:26:28;3.80;;;3.50;;
562;SDS011;266;49.514;8.294;2023-05-24T00:28:56;3.87;;;3.57;;
562;SDS011;266;49.514;8.294;2023-05-24T00:31:24;4.47;;;3.47;;
562;SDS011;266;49.514;8.294;2023-05-24T00:33:53;4.80;;;3.40;;
562;SDS011;266;49.514;8.294;2023-05-24T00:36:23;4.73;;;4.00;;
562;SDS011;266;49.514;8.294;2023-05-24T00:38:51;6.73;;;3.67;;
562;SDS011;266;49.514;8.294;2023-05-24T00:41:19;3.83;;;3.43;;
562;SDS011;266;49.514;8.294;2023-05-24T00:43:47;6.50;;;4.20;;
562;SDS011;266;49.514;8.294;2023-05-24T00:46:16;7.00;;;3.60;;
562;SDS011;266;49.514;8.294;2023-05-24T00:48:47;3.70;;;3.40;;
562;SDS011;266;49.514;8.294;2023-05-24T00:51:16;6.53;;;3.47;;
562;SDS011;266;49.514;8.294;2023-05-24T00:53:45;5.10;;;3.70;;
562;SDS011;266;49.514;8.294;2023-05-24T00:56:15;4.13;;;3.67;;
562;SDS011;266;49.514;8.294;2023-05-24T00:58:44;8.40;;;5.07;;
562;SDS011;266;49.514;8.294;2023-05-24T01:01:11;6.33;;;3.20;;
562;SDS011;266;49.514;8.294;2023-05-24T01:03:39;5.97;;;4.10;;
562;SDS011;266;49.514;8.294;2023-05-24T01:06:08;7.77;;;4.20;;
562;SDS011;266;49.514;8.294;2023-05-24T01:08:42;6.80;;;4.07;;
562;SDS011;266;49.514;8.294;2023-05-24T01:11:24;3.77;;;3.10;;
562;SDS011;266;49.514;8.294;2023-05-24T01:13:57;4.43;;;3.07;;
562;SDS011;266;49.514;8.294;2023-05-24T01:16:31;3.83;;;3.30;;
562;SDS011;266;49.514;8.294;2023-05-24T01:19:18;4.13;;;3.23;;
562;SDS011;266;49.514;8.294;2023-05-24T01:22:12;3.20;;;2.97;;
562;SDS011;266;49.514;8.294;2023-05-24T01:24:54;3.50;;;2.80;;
562;SDS011;266;49.514;8.294;2023-05-24T01:27:30;4.03;;;3.70;;
562;SDS011;266;49.514;8.294;2023-05-24T01:30:00;4.20;;;3.40;;
562;SDS011;266;49.514;8.294;2023-05-24T01:32:29;6.90;;;4.03;;
562;SDS011;266;49.514;8.294;2023-05-24T01:34:58;3.70;;;3.07;;
562;SDS011;266;49.514;8.294;2023-05-24T01:37:26;4.87;;;3.30;;
562;SDS011;266;49.514;8.294;2023-05-24T01:39:54;7.43;;;3.30;;
562;SDS011;266;49.514;8.294;2023-05-24T01:42:23;3.27;;;2.87;;
562;SDS011;266;49.514;8.294;2023-05-24T01:44:56;3.50;;;3.20;;
562;SDS011;266;49.514;8.294;2023-05-24T01:47:33;2.70;;;2.50;;
562;SDS011;266;49.514;8.294;2023-05-24T01:50:13;3.47;;;2.90;;
562;SDS011;266;49.514;8.294;2023-05-24T01:52:46;4.40;;;3.43;;
562;SDS011;266;49.514;8.294;2023-05-24T01:55:17;4.57;;;3.13;;
562;SDS011;266;49.514;8.294;2023-05-24T01:57:47;3.97;;;3.27;;
562;SDS011;266;49.514;8.294;2023-05-24T02:00:19;3.67;;;3.10;;
562;SDS011;266;49.514;8.294;2023-05-24T02:02:48;4.70;;;3.20;;
562;SDS011;266;49.514;8.294;2023-05-24T02:05:17;5.33;;;2.80;;
562;SDS011;266;49.514;8.294;2023-05-24T02:07:45;3.90;;;3.03;;
562;SDS011;266;49.514;8.294;2023-05-24T02:10:14;6.53;;;3.13;;
562;SDS011;266;49.514;8.294;2023-05-24T02:12:41;3.20;;;2.70;;
562;SDS011;266;49.514;8.294;2023-05-24T02:15:10;5.30;;;3.20;;
562;SDS011;266;49.514;8.294;2023-05-24T02:17:41;3.43;;;2.77;;
562;SDS011;266;49.514;8.294;2023-05-24T02:20:11;4.17;;;2.83;;
562;SDS011;266;49.514;8.294;2023-05-24T02:22:39;5.63;;;3.57;;
562;SDS011;266;49.514;8.294;2023-05-24T02:25:07;3.07;;;2.50;;
562;SDS011;266;49.514;8.294;2023-05-24T02:27:36;4.70;;;3.10;;
562;SDS011;266;49.514;8.294;2023-05-24T02:30:06;3.47;;;2.50;;
562;SDS011;266;49.514;8.294;2023-05-24T02:32:36;3.77;;;2.90;;
562;SDS011;266;49.514;8.294;2023-05-24T02:35:05;4.00;;;2.80;;
562;SDS011;266;49.514;8.294;2023-05-24T02:37:33;4.37;;;2.90;;
562;SDS011;266;49.514;8.294;2023-05-24T02:40:02;4.13;;;3.20;;
562;SDS011;266;49.514;8.294;2023-05-24T02:42:30;3.97;;;3.07;;
562;SDS011;266;49.514;8.294;2023-05-24T02:44:58;5.03;;;2.43;;
562;SDS011;266;49.514;8.294;2023-05-24T02:47:26;3.43;;;2.63;;
562;SDS011;266;49.514;8.294;2023-05-24T02:49:54;5.57;;;2.73;;
562;SDS011;266;49.514;8.294;2023-05-24T02:52:24;4.13;;;2.43;;
562;SDS011;266;49.514;8.294;2023-05-24T02:54:52;3.97;;;2.73;;
562;SDS011;266;49.514;8.294;2023-05-24T02:57:20;3.20;;;2.47;;
562;SDS011;266;49.514;8.294;2023-05-24T02:59:48;3.00;;;2.63;;
562;SDS011;266;49.514;8.294;2023-05-24T03:02:16;5.37;;;3.33;;
562;SDS011;266;49.514;8.294;2023-05-24T03:04:44;6.47;;;3.13;;
562;SDS011;266;49.514;8.294;2023-05-24T03:07:12;4.00;;;2.80;;
562;SDS011;266;49.514;8.294;2023-05-24T03:09:42;3.40;;;2.53;;
562;SDS011;266;49.514;8.294;2023-05-24T03:12:09;3.23;;;2.67;;
562;SDS011;266;49.514;8.294;2023-05-24T03:14:38;4.47;;;3.00;;
562;SDS011;266;49.514;8.294;2023-05-24T03:17:06;8.83;;;2.93;;
562;SDS011;266;49.514;8.294;2023-05-24T03:19:34;7.80;;;3.53;;
562;SDS011;266;49.514;8.294;2023-05-24T03:22:02;3.43;;;2.90;;
562;SDS011;266;49.514;8.294;2023-05-24T03:24:31;3.70;;;2.50;;
562;SDS011;266;49.514;8.294;2023-05-24T03:27:01;4.87;;;2.77;;
562;SDS011;266;49.514;8.294;2023-05-24T03:29:29;3.27;;;2.53;;
562;SDS011;266;49.514;8.294;2023-05-24T03:31:57;5.67;;;2.93;;
562;SDS011;266;49.514;8.294;2023-05-24T03:34:25;2.73;;;2.53;;
562;SDS011;266;49.514;8.294;2023-05-24T03:36:53;3.80;;;2.83;;
562;SDS011;266;49.514;8.294;2023-05-24T03:39:21;3.33;;;2.50;;
562;SDS011;266;49.514;8.294;2023-05-24T03:41:49;4.93;;;2.80;;
562;SDS011;266;49.514;8.294;2023-05-24T03:44:18;7.10;;;2.87;;
562;SDS011;266;49.514;8.294;2023-05-24T03:46:46;5.17;;;2.87;;
562;SDS011;266;49.514;8.294;2023-05-24T03:49:14;3.77;;;3.40;;
562;SDS011;266;49.514;8.294;2023-05-24T03:51:42;5.87;;;3.43;;
562;SDS011;266;49.514;8.294;2023-05-24T03:54:11;5.57;;;3.20;;
562;SDS011;266;49.514;8.294;2023-05-24T03:56:39;2.90;;;2.50;;
562;SDS011;266;49.514;8.294;2023-05-24T03:59:07;4.47;;;3.03;;
562;SDS011;266;49.514;8.294;2023-05-24T04:01:36;3.67;;;2.70;;
562;SDS011;266;49.514;8.294;2023-05-24T04:04:05;2.80;;;2.50;;
562;SDS011;266;49.514;8.294;2023-05-24T04:06:33;2.67;;;2.13;;
562;SDS011;266;49.514;8.294;2023-05-24T04:09:02;3.20;;;2.60;;
562;SDS011;266;49.514;8.294;2023-05-24T04:11:31;3.50;;;2.90;;
562;SDS011;266;49.514;8.294;2023-05-24T04:13:59;4.70;;;2.93;;
562;SDS011;266;49.514;8.294;2023-05-24T04:16:27;6.57;;;2.43;;
562;SDS011;266;49.514;8.294;2023-05-24T04:19:00;5.37;;;2.93;;
562;SDS011;266;49.514;8.294;2023-05-24T04:21:29;4.50;;;3.03;;
562;SDS011;266;49.514;8.294;2023-05-24T04:23:58;5.57;;;2.43;;
562;SDS011;266;49.514;8.294;2023-05-24T04:26:26;5.03;;;2.70;;
562;SDS011;266;49.514;8.294;2023-05-24T04:28:55;3.80;;;2.70;;
562;SDS011;266;49.514;8.294;2023-05-24T04:31:23;5.10;;;3.67;;
562;SDS011;266;49.514;8.294;2023-05-24T04:33:51;4.60;;;2.90;;
562;SDS011;266;49.514;8.294;2023-05-24T04:36:22;2.60;;;2.20;;
562;SDS011;266;49.514;8.294;2023-05-24T04:38:50;4.60;;;2.63;;
562;SDS011;266;49.514;8.294;2023-05-24T04:41:21;5.33;;;2.90;;
562;SDS011;266;49.514;8.294;2023-05-24T04:43:49;2.70;;;2.03;;
562;SDS011;266;49.514;8.294;2023-05-24T04:46:18;3.80;;;2.40;;
562;SDS011;266;49.514;8.294;2023-05-24T04:48:46;3.13;;;2.63;;
562;SDS011;266;49.514;8.294;2023-05-24T04:51:14;3.87;;;3.10;;
562;SDS011;266;49.514;8.294;2023-05-24T04:53:44;3.70;;;2.70;;
562;SDS011;266;49.514;8.294;2023-05-24T04:56:11;3.43;;;2.60;;
562;SDS011;266;49.514;8.294;2023-05-24T04:58:40;4.73;;;2.53;;
562;SDS011;266;49.514;8.294;2023-05-24T05:01:08;10.07;;;2.93;;
562;SDS011;266;49.514;8.294;2023-05-24T05:03:35;4.20;;;2.33;;
562;SDS011;266;49.514;8.294;2023-05-24T05:06:04;4.40;;;3.00;;
562;SDS011;266;49.514;8.294;2023-05-24T05:08:32;2.87;;;2.57;;
562;SDS011;266;49.514;8.294;2023-05-24T05:11:01;3.37;;;2.63;;
562;SDS011;266;49.514;8.294;2023-05-24T05:13:29;5.83;;;2.90;;
562;SDS011;266;49.514;8.294;2023-05-24T05:15:57;2.93;;;2.30;;
562;SDS011;266;49.514;8.294;2023-05-24T05:18:25;2.53;;;2.10;;
562;SDS011;266;49.514;8.294;2023-05-24T05:20:53;5.60;;;3.47;;
562;SDS011;266;49.514;8.294;2023-05-24T05:23:22;6.30;;;2.73;;
562;SDS011;266;49.514;8.294;2023-05-24T05:25:50;3.60;;;2.50;;
562;SDS011;266;49.514;8.294;2023-05-24T05:28:19;4.00;;;2.70;;
562;SDS011;266;49.514;8.294;2023-05-24T05:30:47;3.43;;;2.87;;
562;SDS011;266;49.514;8.294;2023-05-24T05:33:15;4.47;;;2.93;;
562;SDS011;266;49.514;8.294;2023-05-24T05:35:43;4.47;;;2.30;;
562;SDS011;266;49.514;8.294;2023-05-24T05:38:11;3.80;;;2.30;;
562;SDS011;266;49.514;8.294;2023-05-24T05:40:39;2.93;;;2.67;;
562;SDS011;266;49.514;8.294;2023-05-24T05:43:07;7.27;;;2.57;;
562;SDS011;266;49.514;8.294;2023-05-24T05:45:37;4.20;;;2.17;;
562;SDS011;266;49.514;8.294;2023-05-24T05:48:05;5.47;;;2.60;;
562;SDS011;266;49.514;8.294;2023-05-24T05:50:33;6.93;;;2.53;;
562;SDS011;266;49.514;8.294;2023-05-24T05:53:01;3.43;;;2.23;;
562;SDS011;266;49.514;8.294;2023-05-24T05:55:29;4.80;;;2.07;;
562;SDS011;266;49.514;8.294;2023-05-24T05:57:57;2.90;;;1.87;;
562;SDS011;266;49.514;8.294;2023-05-24T06:00:25;4.00;;;2.33;;
562;SDS011;266;49.514;8.294;2023-05-24T06:02:54;6.40;;;3.27;;
562;SDS011;266;49.514;8.294;2023-05-24T06:05:22;5.67;;;3.00;;
562;SDS011;266;49.514;8.294;2023-05-24T06:07:50;2.40;;;2.10;;
562;SDS011;266;49.514;8.294;2023-05-24T06:10:18;4.20;;;2.20;;
562;SDS011;266;49.514;8.294;2023-05-24T06:12:46;2.80;;;2.50;;
562;SDS011;266;49.514;8.294;2023-05-24T06:15:15;2.90;;;2.00;;
562;SDS011;266;49.514;8.294;2023-05-24T06:17:43;2.73;;;2.40;;
562;SDS011;266;49.514;8.294;2023-05-24T06:20:14;3.67;;;1.87;;
562;SDS011;266;49.514;8.294;2023-05-24T06:22:42;5.43;;;2.00;;
562;SDS011;266;49.514;8.294;2023-05-24T06:25:10;5.90;;;2.40;;
562;SDS011;266;49.514;8.294;2023-05-24T06:27:40;4.17;;;2.23;;
562;SDS011;266;49.514;8.294;2023-05-24T06:30:08;2.80;;;1.93;;
562;SDS011;266;49.514;8.294;2023-05-24T06:32:37;3.03;;;2.10;;
562;SDS011;266;49.514;8.294;2023-05-24T06:35:05;2.37;;;2.00;;
562;SDS011;266;49.514;8.294;2023-05-24T06:37:35;3.43;;;2.10;;
562;SDS011;266;49.514;8.294;2023-05-24T06:40:04;5.17;;;2.40;;
562;SDS011;266;49.514;8.294;2023-05-24T06:42:35;4.60;;;1.90;;
562;SDS011;266;49.514;8.294;2023-05-24T06:45:04;11.17;;;2.37;;
562;SDS011;266;49.514;8.294;2023-05-24T06:47:33;4.17;;;2.30;;
562;SDS011;266;49.514;8.294;2023-05-24T06:50:02;3.10;;;1.90;;
562;SDS011;266;49.514;8.294;2023-05-24T06:52:30;4.00;;;1.83;;
562;SDS011;266;49.514;8.294;2023-05-24T06:55:00;5.13;;;2.33;;
562;SDS011;266;49.514;8.294;2023-05-24T06:57:28;5.27;;;1.80;;
562;SDS011;266;49.514;8.294;2023-05-24T06:59:56;4.60;;;1.90;;
562;SDS011;266;49.514;8.294;2023-05-24T07:02:24;2.30;;;2.03;;
562;SDS011;266;49.514;8.294;2023-05-24T07:04:53;3.40;;;2.03;;
562;SDS011;266;49.514;8.294;2023-05-24T07:07:22;5.40;;;2.40;;
562;SDS011;266;49.514;8.294;2023-05-24T07:09:50;6.83;;;2.40;;
562;SDS011;266;49.514;8.294;2023-05-24T07:12:20;3.40;;;2.27;;
562;SDS011;266;49.514;8.294;2023-05-24T07:14:48;3.17;;;1.70;;
562;SDS011;266;49.514;8.294;2023-05-24T07:17:16;3.13;;;1.73;;
562;SDS011;266;49.514;8.294;2023-05-24T07:19:44;3.63;;;2.00;;
562;SDS011;266;49.514;8.294;2023-05-24T07:22:12;3.07;;;1.87;;
562;SDS011;266;49.514;8.294;2023-05-24T07:24:41;3.33;;;2.33;;
562;SDS011;266;49.514;8.294;2023-05-24T07:27:09;3.23;;;2.10;;
562;SDS011;266;49.514;8.294;2023-05-24T07:29:38;2.03;;;1.73;;
562;SDS011;266;49.514;8.294;2023-05-24T07:32:10;3.50;;;2.50;;
562;SDS011;266;49.514;8.294;2023-05-24T07:34:38;4.47;;;2.60;;
562;SDS011;266;49.514;8.294;2023-05-24T07:37:06;3.60;;;2.00;;
562;SDS011;266;49.514;8.294;2023-05-24T07:39:34;9.10;;;2.67;;
562;SDS011;266;49.514;8.294;2023-05-24T07:42:03;2.43;;;1.63;;
562;SDS011;266;49.514;8.294;2023-05-24T07:44:31;2.57;;;2.10;;
562;SDS011;266;49.514;8.294;2023-05-24T07:47:01;8.70;;;1.90;;
562;SDS011;266;49.514;8.294;2023-05-24T07:49:29;6.97;;;3.00;;
562;SDS011;266;49.514;8.294;2023-05-24T07:51:57;3.60;;;2.20;;
562;SDS011;266;49.514;8.294;2023-05-24T07:54:25;4.90;;;1.80;;
562;SDS011;266;49.514;8.294;2023-05-24T07:56:53;4.63;;;1.90;;
562;SDS011;266;49.514;8.294;2023-05-24T07:59:22;1.97;;;1.70;;
562;SDS011;266;49.514;8.294;2023-05-24T08:01:50;3.00;;;2.57;;
562;SDS011;266;49.514;8.294;2023-05-24T08:04:20;5.27;;;2.63;;
562;SDS011;266;49.514;8.294;2023-05-24T08:06:49;4.07;;;2.10;;
562;SDS011;266;49.514;8.294;2023-05-24T08:09:17;2.20;;;1.53;;
562;SDS011;266;49.514;8.294;2023-05-24T08:11:45;8.37;;;1.77;;
562;SDS011;266;49.514;8.294;2023-05-24T08:14:13;5.30;;;1.97;;
562;SDS011;266;49.514;8.294;2023-05-24T08:16:41;3.40;;;2.13;;
562;SDS011;266;49.514;8.294;2023-05-24T08:19:09;4.63;;;2.00;;
562;SDS011;266;49.514;8.294;2023-05-24T08:21:39;4.00;;;1.93;;
562;SDS011;266;49.514;8.294;2023-05-24T08:24:07;4.00;;;2.53;;
562;SDS011;266;49.514;8.294;2023-05-24T08:26:35;2.60;;;1.40;;
562;SDS011;266;49.514;8.294;2023-05-24T08:29:03;4.93;;;2.00;;
562;SDS011;266;49.514;8.294;2023-05-24T08:31:31;6.17;;;2.10;;
562;SDS011;266;49.514;8.294;2023-05-24T08:34:00;4.70;;;1.87;;
562;SDS011;266;49.514;8.294;2023-05-24T08:36:27;4.20;;;2.60;;
562;SDS011;266;49.514;8.294;2023-05-24T08:38:57;4.30;;;2.33;;
562;SDS011;266;49.514;8.294;2023-05-24T08:41:25;4.47;;;2.20;;
562;SDS011;266;49.514;8.294;2023-05-24T08:43:54;4.40;;;2.00;;
562;SDS011;266;49.514;8.294;2023-05-24T08:46:24;2.97;;;1.50;;
562;SDS011;266;49.514;8.294;2023-05-24T08:48:53;4.67;;;2.30;;
562;SDS011;266;49.514;8.294;2023-05-24T08:51:24;4.43;;;2.23;;
562;SDS011;266;49.514;8.294;2023-05-24T08:53:52;3.57;;;1.83;;
562;SDS011;266;49.514;8.294;2023-05-24T08:56:22;7.07;;;2.53;;
562;SDS011;266;49.514;8.294;2023-05-24T08:58:53;4.17;;;2.50;;
562;SDS011;266;49.514;8.294;2023-05-24T09:01:21;3.93;;;2.13;;
562;SDS011;266;49.514;8.294;2023-05-24T09:03:54;7.63;;;1.97;;
562;SDS011;266;49.514;8.294;2023-05-24T09:06:22;2.50;;;1.70;;
562;SDS011;266;49.514;8.294;2023-05-24T09:08:51;2.43;;;1.73;;
562;SDS011;266;49.514;8.294;2023-05-24T09:11:19;2.47;;;2.17;;
562;SDS011;266;49.514;8.294;2023-05-24T09:13:50;4.77;;;1.87;;
562;SDS011;266;49.514;8.294;2023-05-24T09:16:20;2.30;;;1.47;;
562;SDS011;266;49.514;8.294;2023-05-24T09:18:48;4.13;;;2.33;;
562;SDS011;266;49.514;8.294;2023-05-24T09:21:16;1.70;;;1.30;;
562;SDS011;266;49.514;8.294;2023-05-24T09:23:45;4.07;;;2.50;;
562;SDS011;266;49.514;8.294;2023-05-24T09:26:14;5.20;;;1.90;;
562;SDS011;266;49.514;8.294;2023-05-24T09:28:43;4.33;;;1.70;;
562;SDS011;266;49.514;8.294;2023-05-24T09:31:14;1.70;;;1.60;;
562;SDS011;266;49.514;8.294;2023-05-24T09:33:42;3.87;;;2.23;;
562;SDS011;266;49.514;8.294;2023-05-24T09:36:15;4.30;;;2.30;;
562;SDS011;266;49.514;8.294;2023-05-24T09:38:43;3.57;;;1.93;;
562;SDS011;266;49.514;8.294;2023-05-24T09:41:11;3.07;;;2.47;;
562;SDS011;266;49.514;8.294;2023-05-24T09:43:46;2.30;;;2.00;;
562;SDS011;266;49.514;8.294;2023-05-24T09:46:17;4.50;;;2.77;;
562;SDS011;266;49.514;8.294;2023-05-24T09:48:56;3.13;;;1.80;;
562;SDS011;266;49.514;8.294;2023-05-24T09:51:24;3.13;;;2.40;;
562;SDS011;266;49.514;8.294;2023-05-24T09:53:55;2.23;;;1.60;;
562;SDS011;266;49.514;8.294;2023-05-24T09:56:23;5.30;;;1.90;;
562;SDS011;266;49.514;8.294;2023-05-24T09:58:52;2.73;;;2.30;;
562;SDS011;266;49.514;8.294;2023-05-24T10:01:23;6.10;;;3.10;;
562;SDS011;266;49.514;8.294;2023-05-24T10:03:52;3.33;;;2.17;;
562;SDS011;266;49.514;8.294;2023-05-24T10:06:21;3.37;;;2.17;;
562;SDS011;266;49.514;8.294;2023-05-24T10:08:50;5.33;;;2.40;;
562;SDS011;266;49.514;8.294;2023-05-24T10:11:19;6.27;;;2.90;;
562;SDS011;266;49.514;8.294;2023-05-24T10:13:47;4.93;;;2.40;;
562;SDS011;266;49.514;8.294;2023-05-24T10:16:16;4.10;;;2.87;;
562;SDS011;266;49.514;8.294;2023-05-24T10:18:45;4.07;;;2.10;;
562;SDS011;266;49.514;8.294;2023-05-24T10:21:14;2.90;;;1.97;;
562;SDS011;266;49.514;8.294;2023-05-24T10:23:44;1.83;;;1.50;;
562;SDS011;266;49.514;8.294;2023-05-24T10:26:17;6.33;;;2.40;;
562;SDS011;266;49.514;8.294;2023-05-24T10:28:47;2.90;;;1.90;;
562;SDS011;266;49.514;8.294;2023-05-24T10:31:23;3.83;;;2.50;;
562;SDS011;266;49.514;8.294;2023-05-24T10:33:55;4.40;;;2.73;;
562;SDS011;266;49.514;8.294;2023-05-24T10:36:34;4.73;;;2.83;;
562;SDS011;266;49.514;8.294;2023-05-24T10:39:02;3.00;;;1.70;;
562;SDS011;266;49.514;8.294;2023-05-24T10:41:37;3.53;;;2.70;;
562;SDS011;266;49.514;8.294;2023-05-24T10:44:09;4.20;;;2.43;;
562;SDS011;266;49.514;8.294;2023-05-24T10:49:34;5.00;;;2.47;;
562;SDS011;266;49.514;8.294;2023-05-24T10:52:07;6.33;;;2.33;;
562;SDS011;266;49.514;8.294;2023-05-24T10:54:36;5.13;;;2.50;;
562;SDS011;266;49.514;8.294;2023-05-24T10:57:14;4.23;;;2.17;;
562;SDS011;266;49.514;8.294;2023-05-24T10:59:49;2.87;;;2.40;;
562;SDS011;266;49.514;8.294;2023-05-24T11:02:17;4.03;;;2.40;;
562;SDS011;266;49.514;8.294;2023-05-24T11:04:47;3.33;;;2.40;;
562;SDS011;266;49.514;8.294;2023-05-24T11:07:15;6.43;;;2.97;;
562;SDS011;266;49.514;8.294;2023-05-24T11:09:46;6.23;;;2.80;;
562;SDS011;266;49.514;8.294;2023-05-24T11:12:19;1.53;;;1.43;;
562;SDS011;266;49.514;8.294;2023-05-24T11:14:48;5.87;;;2.73;;
562;SDS011;266;49.514;8.294;2023-05-24T11:17:17;4.70;;;2.73;;
562;SDS011;266;49.514;8.294;2023-05-24T11:19:50;3.67;;;2.40;;
562;SDS011;266;49.514;8.294;2023-05-24T11:22:19;2.53;;;2.33;;
562;SDS011;266;49.514;8.294;2023-05-24T11:24:48;5.23;;;2.27;;
562;SDS011;266;49.514;8.294;2023-05-24T11:27:18;4.50;;;2.47;;
562;SDS011;266;49.514;8.294;2023-05-24T11:29:47;5.03;;;3.00;;
562;SDS011;266;49.514;8.294;2023-05-24T11:32:15;5.20;;;2.10;;
562;SDS011;266;49.514;8.294;2023-05-24T11:34:45;4.70;;;2.07;;
562;SDS011;266;49.514;8.294;2023-05-24T11:37:14;4.40;;;2.27;;
562;SDS011;266;49.514;8.294;2023-05-24T11:39:47;1.70;;;1.60;;
562;SDS011;266;49.514;8.294;2023-05-24T11:42:16;2.80;;;2.27;;
562;SDS011;266;49.514;8.294;2023-05-24T11:44:46;3.00;;;1.93;;
562;SDS011;266;49.514;8.294;2023-05-24T11:47:16;2.30;;;2.10;;
562;SDS011;266;49.514;8.294;2023-05-24T11:49:48;4.33;;;2.40;;
562;SDS011;266;49.514;8.294;2023-05-24T11:52:18;4.37;;;2.00;;
562;SDS011;266;49.514;8.294;2023-05-24T11:54:48;21.47;;;3.80;;
562;SDS011;266;49.514;8.294;2023-05-24T11:57:17;4.23;;;2.13;;
562;SDS011;266;49.514;8.294;2023-05-24T11:59:48;3.20;;;2.07;;
562;SDS011;266;49.514;8.294;2023-05-24T12:02:16;5.97;;;2.17;;
562;SDS011;266;49.514;8.294;2023-05-24T12:04:45;5.23;;;2.30;;
562;SDS011;266;49.514;8.294;2023-05-24T12:07:13;3.07;;;2.50;;
562;SDS011;266;49.514;8.294;2023-05-24T12:09:43;5.47;;;2.60;;
562;SDS011;266;49.514;8.294;2023-05-24T12:12:11;2.90;;;2.10;;
562;SDS011;266;49.514;8.294;2023-05-24T12:14:39;2.80;;;2.53;;
562;SDS011;266;49.514;8.294;2023-05-24T12:17:12;2.80;;;2.10;;
562;SDS011;266;49.514;8.294;2023-05-24T12:19:42;3.07;;;1.80;;
562;SDS011;266;49.514;8.294;2023-05-24T12:22:10;4.13;;;2.17;;
562;SDS011;266;49.514;8.294;2023-05-24T12:24:42;4.13;;;2.30;;
562;SDS011;266;49.514;8.294;2023-05-24T12:27:10;3.73;;;2.67;;
562;SDS011;266;49.514;8.294;2023-05-24T12:29:39;4.90;;;1.90;;
562;SDS011;266;49.514;8.294;2023-05-24T12:32:08;2.30;;;1.73;;
562;SDS011;266;49.514;8.294;2023-05-24T12:34:39;3.90;;;2.20;;
562;SDS011;266;49.514;8.294;2023-05-24T12:37:08;4.50;;;2.30;;
562;SDS011;266;49.514;8.294;2023-05-24T12:39:38;4.50;;;2.30;;
562;SDS011;266;49.514;8.294;2023-05-24T12:42:11;9.67;;;2.53;;
562;SDS011;266;49.514;8.294;2023-05-24T12:44:39;7.47;;;2.40;;
562;SDS011;266;49.514;8.294;2023-05-24T12:47:08;4.13;;;2.07;;
562;SDS011;266;49.514;8.294;2023-05-24T12:49:37;2.60;;;2.40;;
562;SDS011;266;49.514;8.294;2023-05-24T12:52:05;2.03;;;1.80;;
562;SDS011;266;49.514;8.294;2023-05-24T12:54:33;3.50;;;2.33;;
562;SDS011;266;49.514;8.294;2023-05-24T12:57:01;2.43;;;2.00;;
562;SDS011;266;49.514;8.294;2023-05-24T12:59:31;3.60;;;1.70;;
562;SDS011;266;49.514;8.294;2023-05-24T13:02:00;2.00;;;1.47;;
562;SDS011;266;49.514;8.294;2023-05-24T13:04:28;7.10;;;2.50;;
562;SDS011;266;49.514;8.294;2023-05-24T13:06:58;4.00;;;2.10;;
562;SDS011;266;49.514;8.294;2023-05-24T13:09:28;2.87;;;2.10;;
562;SDS011;266;49.514;8.294;2023-05-24T13:11:56;3.50;;;1.93;;
562;SDS011;266;49.514;8.294;2023-05-24T13:14:24;3.80;;;2.10;;
562;SDS011;266;49.514;8.294;2023-05-24T13:16:53;4.10;;;3.20;;
562;SDS011;266;49.514;8.294;2023-05-24T13:19:21;4.30;;;2.23;;
562;SDS011;266;49.514;8.294;2023-05-24T13:21:49;4.33;;;2.60;;
562;SDS011;266;49.514;8.294;2023-05-24T13:24:17;3.50;;;2.30;;
562;SDS011;266;49.514;8.294;2023-05-24T13:26:46;4.27;;;2.20;;
562;SDS011;266;49.514;8.294;2023-05-24T13:29:15;2.90;;;2.43;;
562;SDS011;266;49.514;8.294;2023-05-24T13:32:03;5.00;;;2.73;;
562;SDS011;266;49.514;8.294;2023-05-24T13:34:32;4.80;;;2.50;;
562;SDS011;266;49.514;8.294;2023-05-24T13:37:00;4.00;;;2.27;;
562;SDS011;266;49.514;8.294;2023-05-24T13:39:28;2.20;;;2.00;;
562;SDS011;266;49.514;8.294;2023-05-24T13:41:56;2.37;;;2.17;;
562;SDS011;266;49.514;8.294;2023-05-24T13:44:26;3.80;;;2.40;;
562;SDS011;266;49.514;8.294;2023-05-24T13:46:54;4.00;;;2.77;;
562;SDS011;266;49.514;8.294;2023-05-24T13:49:24;3.43;;;2.10;;
562;SDS011;266;49.514;8.294;2023-05-24T13:51:53;2.97;;;2.30;;
562;SDS011;266;49.514;8.294;2023-05-24T13:54:23;1.97;;;1.87;;
562;SDS011;266;49.514;8.294;2023-05-24T13:56:52;3.73;;;2.30;;
562;SDS011;266;49.514;8.294;2023-05-24T13:59:22;2.87;;;2.20;;
562;SDS011;266;49.514;8.294;2023-05-24T14:01:51;3.20;;;2.40;;
562;SDS011;266;49.514;8.294;2023-05-24T14:04:19;6.13;;;2.13;;
562;SDS011;266;49.514;8.294;2023-05-24T14:06:48;3.70;;;2.33;;
562;SDS011;266;49.514;8.294;2023-05-24T14:09:16;4.10;;;2.17;;
562;SDS011;266;49.514;8.294;2023-05-24T14:11:46;5.67;;;2.80;;
562;SDS011;266;49.514;8.294;2023-05-24T14:14:14;2.93;;;2.30;;
562;SDS011;266;49.514;8.294;2023-05-24T14:16:45;3.37;;;1.80;;
562;SDS011;266;49.514;8.294;2023-05-24T14:19:16;11.03;;;2.90;;
562;SDS011;266;49.514;8.294;2023-05-24T14:21:44;4.93;;;2.33;;
562;SDS011;266;49.514;8.294;2023-05-24T14:24:14;2.13;;;1.93;;
562;SDS011;266;49.514;8.294;2023-05-24T14:26:42;2.20;;;1.90;;
562;SDS011;266;49.514;8.294;2023-05-24T14:29:12;2.97;;;2.40;;
562;SDS011;266;49.514;8.294;2023-05-24T14:31:40;5.30;;;2.80;;
562;SDS011;266;49.514;8.294;2023-05-24T14:34:09;4.00;;;2.50;;
562;SDS011;266;49.514;8.294;2023-05-24T14:36:37;3.23;;;2.07;;
562;SDS011;266;49.514;8.294;2023-05-24T14:39:06;2.57;;;2.20;;
562;SDS011;266;49.514;8.294;2023-05-24T14:41:36;3.20;;;1.90;;
562;SDS011;266;49.514;8.294;2023-05-24T14:44:04;2.53;;;2.10;;
562;SDS011;266;49.514;8.294;2023-05-24T14:46:32;3.20;;;1.90;;
562;SDS011;266;49.514;8.294;2023-05-24T14:49:00;6.17;;;2.60;;
562;SDS011;266;49.514;8.294;2023-05-24T14:51:28;4.47;;;2.00;;
562;SDS011;266;49.514;8.294;2023-05-24T14:53:56;2.13;;;1.80;;
562;SDS011;266;49.514;8.294;2023-05-24T14:56:24;4.60;;;2.30;;
562;SDS011;266;49.514;8.294;2023-05-24T14:58:53;4.50;;;2.13;;
562;SDS011;266;49.514;8.294;2023-05-24T15:01:22;4.80;;;2.23;;
562;SDS011;266;49.514;8.294;2023-05-24T15:03:51;4.30;;;2.23;;
562;SDS011;266;49.514;8.294;2023-05-24T15:06:19;3.47;;;2.47;;
562;SDS011;266;49.514;8.294;2023-05-24T15:08:47;4.87;;;2.77;;
562;SDS011;266;49.514;8.294;2023-05-24T15:11:15;4.80;;;2.43;;
562;SDS011;266;49.514;8.294;2023-05-24T15:13:44;8.27;;;2.23;;
562;SDS011;266;49.514;8.294;2023-05-24T15:16:13;3.13;;;2.20;;
562;SDS011;266;49.514;8.294;2023-05-24T15:18:41;6.30;;;2.67;;
562;SDS011;266;49.514;8.294;2023-05-24T15:21:09;3.30;;;2.37;;
562;SDS011;266;49.514;8.294;2023-05-24T15:23:37;5.17;;;2.57;;
562;SDS011;266;49.514;8.294;2023-05-24T15:26:05;3.00;;;2.10;;
562;SDS011;266;49.514;8.294;2023-05-24T15:28:33;5.50;;;2.57;;
562;SDS011;266;49.514;8.294;2023-05-24T15:31:01;2.70;;;2.13;;
562;SDS011;266;49.514;8.294;2023-05-24T15:33:31;4.67;;;2.27;;
562;SDS011;266;49.514;8.294;2023-05-24T15:35:59;5.07;;;2.97;;
562;SDS011;266;49.514;8.294;2023-05-24T15:38:27;4.40;;;2.57;;
562;SDS011;266;49.514;8.294;2023-05-24T15:40:55;3.87;;;2.90;;
562;SDS011;266;49.514;8.294;2023-05-24T15:43:23;2.50;;;2.03;;
562;SDS011;266;49.514;8.294;2023-05-24T15:45:51;3.10;;;2.40;;
562;SDS011;266;49.514;8.294;2023-05-24T15:48:19;3.90;;;2.33;;
562;SDS011;266;49.514;8.294;2023-05-24T15:50:49;5.53;;;2.73;;
562;SDS011;266;49.514;8.294;2023-05-24T15:53:37;3.07;;;2.10;;
562;SDS011;266;49.514;8.294;2023-05-24T15:56:05;3.87;;;2.27;;
562;SDS011;266;49.514;8.294;2023-05-24T15:58:33;5.33;;;2.33;;
562;SDS011;266;49.514;8.294;2023-05-24T16:01:01;10.57;;;3.10;;